sensor_id;sensor_type;location;lat;lon;timestamp;pressure;altitude;pressure_sealevel;temperature;humidity
72061;BME280;59925;52.136;5.420;2023-08-21T00:00:36;102448.41;;;17.93;83.87
72061;BME280;59925;52.136;5.420;2023-08-21T00:03:03;102454.66;;;17.88;84.10
72061;BME280;59925;52.136;5.420;2023-08-21T00:05:29;102456.34;;;17.84;84.18
72061;BME280;59925;52.136;5.420;2023-08-21T00:07:56;102454.19;;;17.81;84.53
72061;BME280;59925;52.136;5.420;2023-08-21T00:10:22;102454.19;;;17.81;84.51
72061;BME280;59925;52.136;5.420;2023-08-21T00:12:49;102456.34;;;17.79;84.29
72061;BME280;59925;52.136;5.420;2023-08-21T00:15:15;102460.44;;;17.76;84.43
72061;BME280;59925;52.136;5.420;2023-08-21T00:17:43;102461.00;;;17.73;84.63
72061;BME280;59925;52.136;5.420;2023-08-21T00:20:10;102464.50;;;17.74;84.58
72061;BME280;59925;52.136;5.420;2023-08-21T00:22:36;102464.25;;;17.75;84.72
72061;BME280;59925;52.136;5.420;2023-08-21T00:25:04;102453.41;;;17.75;84.75
72061;BME280;59925;52.136;5.420;2023-08-21T00:27:30;102458.81;;;17.75;84.65
72061;BME280;59925;52.136;5.420;2023-08-21T00:29:59;102455.59;;;17.68;85.01
72061;BME280;59925;52.136;5.420;2023-08-21T00:32:26;102462.94;;;17.62;84.74
72061;BME280;59925;52.136;5.420;2023-08-21T00:34:53;102458.09;;;17.59;84.83
72061;BME280;59925;52.136;5.420;2023-08-21T00:37:19;102462.41;;;17.60;84.47
72061;BME280;59925;52.136;5.420;2023-08-21T00:39:46;102457.25;;;17.59;84.80
72061;BME280;59925;52.136;5.420;2023-08-21T00:42:12;102457.56;;;17.57;85.29
72061;BME280;59925;52.136;5.420;2023-08-21T00:44:39;102454.56;;;17.59;85.68
72061;BME280;59925;52.136;5.420;2023-08-21T00:47:05;102447.75;;;17.67;85.18
72061;BME280;59925;52.136;5.420;2023-08-21T00:49:32;102442.56;;;17.70;84.80
72061;BME280;59925;52.136;5.420;2023-08-21T00:51:59;102457.47;;;17.73;85.05
72061;BME280;59925;52.136;5.420;2023-08-21T00:54:27;102449.63;;;17.71;85.16
72061;BME280;59925;52.136;5.420;2023-08-21T00:56:54;102447.72;;;17.72;85.29
72061;BME280;59925;52.136;5.420;2023-08-21T00:59:22;102449.34;;;17.73;85.07
72061;BME280;59925;52.136;5.420;2023-08-21T01:01:48;102450.94;;;17.74;85.22
72061;BME280;59925;52.136;5.420;2023-08-21T01:04:15;102448.53;;;17.72;85.67
72061;BME280;59925;52.136;5.420;2023-08-21T01:06:41;102447.72;;;17.72;85.76
72061;BME280;59925;52.136;5.420;2023-08-21T01:09:13;102440.13;;;17.69;85.73
72061;BME280;59925;52.136;5.420;2023-08-21T01:14:23;102442.31;;;17.67;85.82
72061;BME280;59925;52.136;5.420;2023-08-21T01:16:56;102441.53;;;17.61;85.87
72061;BME280;59925;52.136;5.420;2023-08-21T01:19:40;102442.91;;;17.53;85.90
72061;BME280;59925;52.136;5.420;2023-08-21T01:22:07;102450.50;;;17.51;85.75
72061;BME280;59925;52.136;5.420;2023-08-21T01:24:34;102444.00;;;17.52;85.82
72061;BME280;59925;52.136;5.420;2023-08-21T01:27:00;102437.78;;;17.52;85.70
72061;BME280;59925;52.136;5.420;2023-08-21T01:29:27;102437.75;;;17.57;85.98
72061;BME280;59925;52.136;5.420;2023-08-21T01:32:04;102438.28;;;17.54;86.17
72061;BME280;59925;52.136;5.420;2023-08-21T01:34:34;102448.88;;;17.50;86.37
72061;BME280;59925;52.136;5.420;2023-08-21T01:37:00;102454.34;;;17.45;86.52
72061;BME280;59925;52.136;5.420;2023-08-21T01:39:27;102448.91;;;17.45;86.50
72061;BME280;59925;52.136;5.420;2023-08-21T01:41:54;102448.09;;;17.44;86.45
72061;BME280;59925;52.136;5.420;2023-08-21T01:44:22;102447.53;;;17.48;86.31
72061;BME280;59925;52.136;5.420;2023-08-21T01:46:48;102446.16;;;17.50;86.51
72061;BME280;59925;52.136;5.420;2023-08-21T01:49:15;102449.72;;;17.51;86.29
72061;BME280;59925;52.136;5.420;2023-08-21T01:51:41;102453.50;;;17.50;86.35
72061;BME280;59925;52.136;5.420;2023-08-21T01:54:08;102448.34;;;17.53;86.29
72061;BME280;59925;52.136;5.420;2023-08-21T01:56:34;102448.03;;;17.55;86.23
72061;BME280;59925;52.136;5.420;2023-08-21T01:59:04;102451.03;;;17.53;86.40
72061;BME280;59925;52.136;5.420;2023-08-21T02:01:31;102451.88;;;17.49;86.64
72061;BME280;59925;52.136;5.420;2023-08-21T02:03:57;102451.34;;;17.46;87.05
72061;BME280;59925;52.136;5.420;2023-08-21T02:06:24;102453.53;;;17.44;86.86
72061;BME280;59925;52.136;5.420;2023-08-21T02:08:50;102461.38;;;17.46;86.53
72061;BME280;59925;52.136;5.420;2023-08-21T02:11:17;102449.72;;;17.45;86.87
72061;BME280;59925;52.136;5.420;2023-08-21T02:13:43;102457.06;;;17.45;86.77
72061;BME280;59925;52.136;5.420;2023-08-21T02:16:09;102452.44;;;17.45;86.91
72061;BME280;59925;52.136;5.420;2023-08-21T02:18:36;102446.47;;;17.49;86.66
72061;BME280;59925;52.136;5.420;2023-08-21T02:21:02;102449.16;;;17.49;86.69
72061;BME280;59925;52.136;5.420;2023-08-21T02:23:29;102444.03;;;17.42;87.00
72061;BME280;59925;52.136;5.420;2023-08-21T02:25:56;102449.19;;;17.43;86.94
72061;BME280;59925;52.136;5.420;2023-08-21T02:28:22;102454.59;;;17.43;87.24
72061;BME280;59925;52.136;5.420;2023-08-21T02:30:49;102459.22;;;17.38;87.61
72061;BME280;59925;52.136;5.420;2023-08-21T02:33:15;102453.81;;;17.38;87.81
72061;BME280;59925;52.136;5.420;2023-08-21T02:35:42;102447.00;;;17.40;87.98
72061;BME280;59925;52.136;5.420;2023-08-21T02:38:08;102445.66;;;17.43;87.94
72061;BME280;59925;52.136;5.420;2023-08-21T02:40:35;102451.34;;;17.46;87.67
72061;BME280;59925;52.136;5.420;2023-08-21T02:43:02;102447.84;;;17.46;87.99
72061;BME280;59925;52.136;5.420;2023-08-21T02:45:28;102452.44;;;17.45;87.91
72061;BME280;59925;52.136;5.420;2023-08-21T02:47:56;102456.47;;;17.48;87.56
72061;BME280;59925;52.136;5.420;2023-08-21T02:50:22;102459.72;;;17.50;87.45
72061;BME280;59925;52.136;5.420;2023-08-21T02:52:49;102454.56;;;17.54;87.38
72061;BME280;59925;52.136;5.420;2023-08-21T02:55:15;102455.69;;;17.53;87.07
72061;BME280;59925;52.136;5.420;2023-08-21T02:57:42;102456.75;;;17.52;87.10
72061;BME280;59925;52.136;5.420;2023-08-21T03:00:09;102455.13;;;17.51;87.40
72061;BME280;59925;52.136;5.420;2023-08-21T03:02:35;102453.50;;;17.50;87.59
72061;BME280;59925;52.136;5.420;2023-08-21T03:05:03;102454.06;;;17.52;87.22
72061;BME280;59925;52.136;5.420;2023-08-21T03:07:30;102455.69;;;17.53;87.16
72061;BME280;59925;52.136;5.420;2023-08-21T03:09:56;102453.75;;;17.53;86.71
72061;BME280;59925;52.136;5.420;2023-08-21T03:12:23;102460.81;;;17.54;86.61
72061;BME280;59925;52.136;5.420;2023-08-21T03:14:50;102458.63;;;17.56;86.56
72061;BME280;59925;52.136;5.420;2023-08-21T03:17:16;102452.69;;;17.54;87.08
72061;BME280;59925;52.136;5.420;2023-08-21T03:19:43;102455.69;;;17.53;87.23
72061;BME280;59925;52.136;5.420;2023-08-21T03:22:09;102452.69;;;17.49;87.92
72061;BME280;59925;52.136;5.420;2023-08-21T03:24:36;102454.84;;;17.47;88.22
72061;BME280;59925;52.136;5.420;2023-08-21T03:27:02;102459.75;;;17.45;88.60
72061;BME280;59925;52.136;5.420;2023-08-21T03:29:29;102458.41;;;17.42;88.55
72061;BME280;59925;52.136;5.420;2023-08-21T03:31:56;102461.38;;;17.46;88.63
72061;BME280;59925;52.136;5.420;2023-08-21T03:34:22;102455.13;;;17.51;88.73
72061;BME280;59925;52.136;5.420;2023-08-21T03:36:49;102452.16;;;17.47;88.75
72061;BME280;59925;52.136;5.420;2023-08-21T03:39:16;102456.47;;;17.48;88.70
72061;BME280;59925;52.136;5.420;2023-08-21T03:41:42;102447.78;;;17.51;88.19
72061;BME280;59925;52.136;5.420;2023-08-21T03:44:09;102451.88;;;17.49;88.08
72061;BME280;59925;52.136;5.420;2023-08-21T03:46:35;102448.91;;;17.45;88.28
72061;BME280;59925;52.136;5.420;2023-08-21T03:49:02;102447.00;;;17.40;88.94
72061;BME280;59925;52.136;5.420;2023-08-21T03:51:28;102437.78;;;17.41;88.34
72061;BME280;59925;52.136;5.420;2023-08-21T03:53:55;102442.66;;;17.44;87.92
72061;BME280;59925;52.136;5.420;2023-08-21T03:56:21;102442.13;;;17.42;88.04
72061;BME280;59925;52.136;5.420;2023-08-21T03:58:49;102441.09;;;17.33;88.39
72061;BME280;59925;52.136;5.420;2023-08-21T04:01:16;102447.59;;;17.27;88.54
72061;BME280;59925;52.136;5.420;2023-08-21T04:03:42;102450.06;;;17.23;88.83
72061;BME280;59925;52.136;5.420;2023-08-21T04:06:09;102452.50;;;17.25;88.88
72061;BME280;59925;52.136;5.420;2023-08-21T04:08:35;102449.81;;;17.20;89.05
72061;BME280;59925;52.136;5.420;2023-08-21T04:11:02;102452.25;;;17.16;89.14
72061;BME280;59925;52.136;5.420;2023-08-21T04:13:28;102452.25;;;17.16;89.50
72061;BME280;59925;52.136;5.420;2023-08-21T04:15:55;102458.47;;;17.16;89.24
72061;BME280;59925;52.136;5.420;2023-08-21T04:18:23;102461.75;;;17.13;89.51
72061;BME280;59925;52.136;5.420;2023-08-21T04:21:06;102465.25;;;17.14;89.88
72061;BME280;59925;52.136;5.420;2023-08-21T04:23:32;102465.00;;;17.10;90.13
72061;BME280;59925;52.136;5.420;2023-08-21T04:26:03;102465.25;;;17.09;90.55
72061;BME280;59925;52.136;5.420;2023-08-21T04:28:33;102467.19;;;17.13;90.18
72061;BME280;59925;52.136;5.420;2023-08-21T04:31:00;102469.59;;;17.20;89.76
72061;BME280;59925;52.136;5.420;2023-08-21T04:33:28;102460.91;;;17.23;89.41
72061;BME280;59925;52.136;5.420;2023-08-21T04:35:55;102463.59;;;17.28;89.11
72061;BME280;59925;52.136;5.420;2023-08-21T04:38:22;102461.69;;;17.29;88.89
72061;BME280;59925;52.136;5.420;2023-08-21T04:40:48;102459.53;;;17.31;88.47
72061;BME280;59925;52.136;5.420;2023-08-21T04:43:15;102465.47;;;17.33;88.38
72061;BME280;59925;52.136;5.420;2023-08-21T04:45:48;102458.19;;;17.28;88.34
72061;BME280;59925;52.136;5.420;2023-08-21T04:48:21;102465.22;;;17.29;88.06
72061;BME280;59925;52.136;5.420;2023-08-21T04:50:48;102468.50;;;17.21;88.86
72061;BME280;59925;52.136;5.420;2023-08-21T04:53:14;102466.59;;;17.22;88.84
72061;BME280;59925;52.136;5.420;2023-08-21T04:55:41;102474.44;;;17.23;88.83
72061;BME280;59925;52.136;5.420;2023-08-21T04:58:09;102470.13;;;17.22;88.88
72061;BME280;59925;52.136;5.420;2023-08-21T05:00:35;102464.44;;;17.19;88.98
72061;BME280;59925;52.136;5.420;2023-08-21T05:03:02;102471.78;;;17.18;89.13
72061;BME280;59925;52.136;5.420;2023-08-21T05:05:29;102480.97;;;17.17;89.01
72061;BME280;59925;52.136;5.420;2023-08-21T05:07:55;102474.47;;;17.18;89.13
72061;BME280;59925;52.136;5.420;2023-08-21T05:10:22;102479.91;;;17.18;89.16
72061;BME280;59925;52.136;5.420;2023-08-21T05:12:48;102479.59;;;17.20;89.13
72061;BME280;59925;52.136;5.420;2023-08-21T05:15:15;102486.91;;;17.24;88.86
72061;BME280;59925;52.136;5.420;2023-08-21T05:17:43;102486.91;;;17.29;88.50
72061;BME280;59925;52.136;5.420;2023-08-21T05:20:09;102494.47;;;17.38;88.36
72061;BME280;59925;52.136;5.420;2023-08-21T05:22:40;102489.59;;;17.45;88.33
72061;BME280;59925;52.136;5.420;2023-08-21T05:25:07;102493.63;;;17.53;88.77
72061;BME280;59925;52.136;5.420;2023-08-21T05:27:34;102490.09;;;17.57;88.76
72061;BME280;59925;52.136;5.420;2023-08-21T05:30:00;102490.88;;;17.63;88.95
72061;BME280;59925;52.136;5.420;2023-08-21T05:32:27;102483.78;;;17.67;89.28
72061;BME280;59925;52.136;5.420;2023-08-21T05:34:53;102485.97;;;17.70;89.10
72061;BME280;59925;52.136;5.420;2023-08-21T05:37:20;102481.06;;;17.72;88.96
72061;BME280;59925;52.136;5.420;2023-08-21T05:39:47;102484.03;;;17.76;88.84
72061;BME280;59925;52.136;5.420;2023-08-21T05:42:15;102485.09;;;17.80;88.55
72061;BME280;59925;52.136;5.420;2023-08-21T05:44:41;102490.22;;;17.87;88.14
72061;BME280;59925;52.136;5.420;2023-08-21T05:47:08;102486.94;;;18.00;88.30
72061;BME280;59925;52.136;5.420;2023-08-21T05:49:34;102489.72;;;18.69;88.55
72061;BME280;59925;52.136;5.420;2023-08-21T05:52:01;102489.69;;;20.20;86.01
72061;BME280;59925;52.136;5.420;2023-08-21T05:54:28;102492.22;;;21.58;80.40
72061;BME280;59925;52.136;5.420;2023-08-21T05:56:57;102494.59;;;22.61;75.37
72061;BME280;59925;52.136;5.420;2023-08-21T05:59:29;102492.31;;;23.17;71.91
72061;BME280;59925;52.136;5.420;2023-08-21T06:01:56;102495.97;;;22.49;70.52
72061;BME280;59925;52.136;5.420;2023-08-21T06:04:22;102494.56;;;21.65;73.04
72061;BME280;59925;52.136;5.420;2023-08-21T06:06:49;102493.56;;;22.34;73.72
72061;BME280;59925;52.136;5.420;2023-08-21T06:09:15;102492.59;;;23.47;70.30
72061;BME280;59925;52.136;5.420;2023-08-21T06:11:43;102497.03;;;24.10;66.50
72061;BME280;59925;52.136;5.420;2023-08-21T06:14:10;102492.84;;;24.47;65.49
72061;BME280;59925;52.136;5.420;2023-08-21T06:16:36;102492.66;;;24.70;63.28
72061;BME280;59925;52.136;5.420;2023-08-21T06:19:03;102496.84;;;23.80;64.05
72061;BME280;59925;52.136;5.420;2023-08-21T06:21:30;102491.88;;;22.92;67.01
72061;BME280;59925;52.136;5.420;2023-08-21T06:23:56;102499.22;;;22.38;69.81
72061;BME280;59925;52.136;5.420;2023-08-21T06:26:23;102501.34;;;22.04;70.56
72061;BME280;59925;52.136;5.420;2023-08-21T06:28:49;102500.22;;;21.82;71.98
72061;BME280;59925;52.136;5.420;2023-08-21T06:31:15;102500.41;;;21.72;71.87
72061;BME280;59925;52.136;5.420;2023-08-21T06:33:42;102501.50;;;21.85;71.45
72061;BME280;59925;52.136;5.420;2023-08-21T06:36:09;102509.16;;;21.97;70.59
72061;BME280;59925;52.136;5.420;2023-08-21T06:38:35;102496.44;;;21.92;70.01
72061;BME280;59925;52.136;5.420;2023-08-21T06:41:03;102506.78;;;21.67;71.25
72061;BME280;59925;52.136;5.420;2023-08-21T06:43:35;102506.16;;;21.42;72.15
72061;BME280;59925;52.136;5.420;2023-08-21T06:46:02;102510.28;;;21.26;72.15
72061;BME280;59925;52.136;5.420;2023-08-21T06:48:28;102497.78;;;21.39;71.75
72061;BME280;59925;52.136;5.420;2023-08-21T06:50:54;102497.38;;;21.59;72.68
72061;BME280;59925;52.136;5.420;2023-08-21T06:53:21;102497.91;;;21.76;72.56
72061;BME280;59925;52.136;5.420;2023-08-21T06:55:47;102496.22;;;21.88;69.67
72061;BME280;59925;52.136;5.420;2023-08-21T06:58:14;102505.13;;;21.94;70.13
72061;BME280;59925;52.136;5.420;2023-08-21T07:00:40;102501.19;;;22.00;69.32
72061;BME280;59925;52.136;5.420;2023-08-21T07:03:07;102509.44;;;22.09;70.79
72061;BME280;59925;52.136;5.420;2023-08-21T07:05:34;102510.75;;;22.12;71.52
72061;BME280;59925;52.136;5.420;2023-08-21T07:08:00;102507.41;;;22.15;70.22
72061;BME280;59925;52.136;5.420;2023-08-21T07:10:27;102500.84;;;22.16;69.72
72061;BME280;59925;52.136;5.420;2023-08-21T07:12:53;102507.16;;;22.25;69.34
72061;BME280;59925;52.136;5.420;2023-08-21T07:15:20;102500.78;;;22.30;69.57
72061;BME280;59925;52.136;5.420;2023-08-21T07:17:46;102506.59;;;22.51;69.04
72061;BME280;59925;52.136;5.420;2023-08-21T07:20:13;102513.41;;;22.62;68.98
72061;BME280;59925;52.136;5.420;2023-08-21T07:22:39;102506.00;;;22.63;69.74
72061;BME280;59925;52.136;5.420;2023-08-21T07:25:07;102509.88;;;22.62;70.02
72061;BME280;59925;52.136;5.420;2023-08-21T07:27:33;102511.97;;;22.65;69.92
72061;BME280;59925;52.136;5.420;2023-08-21T07:30:00;102516.25;;;22.57;69.36
72061;BME280;59925;52.136;5.420;2023-08-21T07:32:26;102513.84;;;22.56;68.92
72061;BME280;59925;52.136;5.420;2023-08-21T07:34:53;102508.56;;;22.59;68.15
72061;BME280;59925;52.136;5.420;2023-08-21T07:37:20;102509.13;;;22.70;67.96
72061;BME280;59925;52.136;5.420;2023-08-21T07:39:47;102512.19;;;22.77;67.68
72061;BME280;59925;52.136;5.420;2023-08-21T07:42:13;102516.75;;;22.82;67.39
72061;BME280;59925;52.136;5.420;2023-08-21T07:44:40;102514.97;;;23.09;67.04
72061;BME280;59925;52.136;5.420;2023-08-21T07:47:07;102512.97;;;23.32;65.69
72061;BME280;59925;52.136;5.420;2023-08-21T07:49:33;102515.44;;;23.51;64.42
72061;BME280;59925;52.136;5.420;2023-08-21T07:52:00;102513.09;;;23.76;65.03
72061;BME280;59925;52.136;5.420;2023-08-21T07:54:26;102518.78;;;23.97;64.32
72061;BME280;59925;52.136;5.420;2023-08-21T07:56:53;102513.00;;;24.16;61.98
72061;BME280;59925;52.136;5.420;2023-08-21T07:59:19;102520.44;;;24.25;62.37
72061;BME280;59925;52.136;5.420;2023-08-21T08:01:46;102518.97;;;24.10;60.11
72061;BME280;59925;52.136;5.420;2023-08-21T08:04:12;102525.09;;;24.24;59.97
72061;BME280;59925;52.136;5.420;2023-08-21T08:06:39;102527.53;;;24.26;61.16
72061;BME280;59925;52.136;5.420;2023-08-21T08:09:06;102519.31;;;24.17;60.06
72061;BME280;59925;52.136;5.420;2023-08-21T08:11:32;102515.84;;;23.85;60.78
72061;BME280;59925;52.136;5.420;2023-08-21T08:13:59;102516.59;;;23.59;62.42
72061;BME280;59925;52.136;5.420;2023-08-21T08:16:26;102521.16;;;23.72;63.43
72061;BME280;59925;52.136;5.420;2023-08-21T08:18:52;102529.47;;;24.08;63.18
72061;BME280;59925;52.136;5.420;2023-08-21T08:21:19;102528.47;;;24.03;62.83
72061;BME280;59925;52.136;5.420;2023-08-21T08:23:45;102533.47;;;24.01;62.11
72061;BME280;59925;52.136;5.420;2023-08-21T08:26:12;102533.31;;;23.98;61.38
72061;BME280;59925;52.136;5.420;2023-08-21T08:28:39;102531.38;;;24.16;61.28
72061;BME280;59925;52.136;5.420;2023-08-21T08:31:05;102529.09;;;24.36;59.39
72061;BME280;59925;52.136;5.420;2023-08-21T08:33:31;102520.91;;;24.27;59.98
72061;BME280;59925;52.136;5.420;2023-08-21T08:35:58;102518.00;;;24.23;59.46
72061;BME280;59925;52.136;5.420;2023-08-21T08:38:24;102524.91;;;24.56;59.39
72061;BME280;59925;52.136;5.420;2023-08-21T08:40:52;102534.03;;;24.95;59.41
72061;BME280;59925;52.136;5.420;2023-08-21T08:43:20;102534.28;;;25.20;56.64
72061;BME280;59925;52.136;5.420;2023-08-21T08:45:49;102534.63;;;25.09;56.76
72061;BME280;59925;52.136;5.420;2023-08-21T08:48:16;102537.69;;;25.17;56.08
72061;BME280;59925;52.136;5.420;2023-08-21T08:50:43;102542.16;;;25.30;57.22
72061;BME280;59925;52.136;5.420;2023-08-21T08:53:12;102529.53;;;25.38;56.56
72061;BME280;59925;52.136;5.420;2023-08-21T08:55:43;102542.72;;;25.53;58.79
72061;BME280;59925;52.136;5.420;2023-08-21T08:58:10;102527.44;;;25.74;58.10
72061;BME280;59925;52.136;5.420;2023-08-21T09:00:37;102527.94;;;25.88;54.64
72061;BME280;59925;52.136;5.420;2023-08-21T09:03:04;102523.34;;;26.01;56.69
72061;BME280;59925;52.136;5.420;2023-08-21T09:05:32;102522.28;;;26.14;55.11
72061;BME280;59925;52.136;5.420;2023-08-21T09:08:18;102516.97;;;26.30;55.16
72061;BME280;59925;52.136;5.420;2023-08-21T09:10:46;102521.69;;;26.30;53.44
72061;BME280;59925;52.136;5.420;2023-08-21T09:13:13;102505.22;;;26.42;52.58
72061;BME280;59925;52.136;5.420;2023-08-21T09:15:45;102514.44;;;26.25;51.92
72061;BME280;59925;52.136;5.420;2023-08-21T09:18:13;102517.56;;;26.36;53.04
72061;BME280;59925;52.136;5.420;2023-08-21T09:20:41;102515.75;;;26.40;50.05
72061;BME280;59925;52.136;5.420;2023-08-21T09:23:13;102513.69;;;26.16;51.09
72061;BME280;59925;52.136;5.420;2023-08-21T09:25:40;102518.19;;;26.21;50.74
72061;BME280;59925;52.136;5.420;2023-08-21T09:28:08;102520.19;;;26.33;50.04
72061;BME280;59925;52.136;5.420;2023-08-21T09:30:52;102518.66;;;26.56;50.51
72061;BME280;59925;52.136;5.420;2023-08-21T09:33:23;102514.56;;;26.62;50.96
72061;BME280;59925;52.136;5.420;2023-08-21T09:35:54;102511.72;;;26.71;49.95
72061;BME280;59925;52.136;5.420;2023-08-21T09:38:22;102518.91;;;26.85;49.87
72061;BME280;59925;52.136;5.420;2023-08-21T09:40:54;102514.66;;;27.00;49.75
72061;BME280;59925;52.136;5.420;2023-08-21T09:43:23;102501.00;;;27.03;47.99
72061;BME280;59925;52.136;5.420;2023-08-21T09:45:51;102510.88;;;27.04;48.32
72061;BME280;59925;52.136;5.420;2023-08-21T09:48:21;102502.88;;;26.99;48.29
72061;BME280;59925;52.136;5.420;2023-08-21T09:50:51;102507.34;;;27.16;48.53
72061;BME280;59925;52.136;5.420;2023-08-21T09:53:20;102500.56;;;27.14;46.76
72061;BME280;59925;52.136;5.420;2023-08-21T09:55:47;102499.19;;;27.07;45.71
72061;BME280;59925;52.136;5.420;2023-08-21T09:58:15;102491.41;;;27.22;45.92
72061;BME280;59925;52.136;5.420;2023-08-21T10:00:43;102495.75;;;27.23;46.96
72061;BME280;59925;52.136;5.420;2023-08-21T10:03:11;102497.38;;;27.24;46.07
72061;BME280;59925;52.136;5.420;2023-08-21T10:05:39;102486.91;;;27.42;47.11
72061;BME280;59925;52.136;5.420;2023-08-21T10:08:08;102488.84;;;27.54;45.95
72061;BME280;59925;52.136;5.420;2023-08-21T10:10:37;102492.56;;;27.46;47.73
72061;BME280;59925;52.136;5.420;2023-08-21T10:13:05;102487.22;;;27.78;48.23
72061;BME280;59925;52.136;5.420;2023-08-21T10:15:33;102481.41;;;27.95;46.47
72061;BME280;59925;52.136;5.420;2023-08-21T10:18:23;102477.94;;;27.98;47.12
72061;BME280;59925;52.136;5.420;2023-08-21T10:20:52;102476.19;;;28.19;46.13
72061;BME280;59925;52.136;5.420;2023-08-21T10:23:30;102474.72;;;28.37;46.66
72061;BME280;59925;52.136;5.420;2023-08-21T10:26:01;102474.66;;;28.50;45.97
72061;BME280;59925;52.136;5.420;2023-08-21T10:28:51;102479.09;;;28.54;46.38
72061;BME280;59925;52.136;5.420;2023-08-21T10:31:30;102481.53;;;28.88;46.14
72061;BME280;59925;52.136;5.420;2023-08-21T10:33:59;102475.94;;;28.84;45.24
72061;BME280;59925;52.136;5.420;2023-08-21T10:39:24;102484.91;;;28.97;42.00
72061;BME280;59925;52.136;5.420;2023-08-21T10:41:54;102481.88;;;28.86;43.82
72061;BME280;59925;52.136;5.420;2023-08-21T10:47:37;102490.56;;;29.36;43.59
72061;BME280;59925;52.136;5.420;2023-08-21T10:50:06;102480.38;;;29.57;42.87
72061;BME280;59925;52.136;5.420;2023-08-21T10:52:40;102487.75;;;29.52;41.37
72061;BME280;59925;52.136;5.420;2023-08-21T10:55:09;102493.81;;;29.58;41.27
72061;BME280;59925;52.136;5.420;2023-08-21T10:57:35;102495.28;;;29.52;41.68
72061;BME280;59925;52.136;5.420;2023-08-21T11:02:42;102491.19;;;29.30;41.02
72061;BME280;59925;52.136;5.420;2023-08-21T11:05:11;102480.88;;;29.43;40.55
72061;BME280;59925;52.136;5.420;2023-08-21T11:07:41;102478.59;;;29.32;40.31
72061;BME280;59925;52.136;5.420;2023-08-21T11:10:18;102477.78;;;29.64;39.51
72061;BME280;59925;52.136;5.420;2023-08-21T11:12:55;102482.69;;;29.94;39.32
72061;BME280;59925;52.136;5.420;2023-08-21T11:15:24;102483.47;;;30.10;37.50
72061;BME280;59925;52.136;5.420;2023-08-21T11:17:56;102480.69;;;30.10;39.30
72061;BME280;59925;52.136;5.420;2023-08-21T11:20:31;102473.72;;;30.17;38.41
72061;BME280;59925;52.136;5.420;2023-08-21T11:22:58;102473.81;;;29.65;36.75
72061;BME280;59925;52.136;5.420;2023-08-21T11:25:25;102474.69;;;29.69;37.32
72061;BME280;59925;52.136;5.420;2023-08-21T11:27:52;102471.53;;;29.87;38.29
72061;BME280;59925;52.136;5.420;2023-08-21T11:30:22;102470.03;;;29.93;39.02
72061;BME280;59925;52.136;5.420;2023-08-21T11:33:12;102463.06;;;30.19;38.46
72061;BME280;59925;52.136;5.420;2023-08-21T11:35:40;102468.56;;;30.38;36.89
72061;BME280;59925;52.136;5.420;2023-08-21T11:38:15;102467.84;;;30.41;38.01
72061;BME280;59925;52.136;5.420;2023-08-21T11:40:41;102464.59;;;30.59;38.00
72061;BME280;59925;52.136;5.420;2023-08-21T11:43:08;102460.78;;;30.67;37.14
72061;BME280;59925;52.136;5.420;2023-08-21T11:45:35;102472.03;;;30.78;37.76
72061;BME280;59925;52.136;5.420;2023-08-21T11:48:22;102462.84;;;31.24;35.88
72061;BME280;59925;52.136;5.420;2023-08-21T11:50:48;102462.91;;;31.28;37.30
72061;BME280;59925;52.136;5.420;2023-08-21T11:53:15;102454.22;;;31.29;36.88
72061;BME280;59925;52.136;5.420;2023-08-21T11:55:53;102453.00;;;31.57;37.09
72061;BME280;59925;52.136;5.420;2023-08-21T11:58:23;102456.81;;;31.45;36.31
72061;BME280;59925;52.136;5.420;2023-08-21T12:00:49;102444.56;;;30.93;37.03
72061;BME280;59925;52.136;5.420;2023-08-21T12:03:17;102450.81;;;31.13;36.91
72061;BME280;59925;52.136;5.420;2023-08-21T12:05:44;102446.88;;;31.14;37.42
72061;BME280;59925;52.136;5.420;2023-08-21T12:08:11;102453.69;;;31.47;36.06
72061;BME280;59925;52.136;5.420;2023-08-21T12:10:38;102452.53;;;31.52;37.17
72061;BME280;59925;52.136;5.420;2023-08-21T12:13:07;102448.06;;;31.43;37.75
72061;BME280;59925;52.136;5.420;2023-08-21T12:15:33;102450.94;;;31.81;36.39
72061;BME280;59925;52.136;5.420;2023-08-21T12:18:00;102452.16;;;31.23;35.82
72061;BME280;59925;52.136;5.420;2023-08-21T12:20:27;102452.41;;;30.40;36.87
72061;BME280;59925;52.136;5.420;2023-08-21T12:22:53;102443.16;;;30.09;38.14
72061;BME280;59925;52.136;5.420;2023-08-21T12:25:20;102444.31;;;29.89;37.11
72061;BME280;59925;52.136;5.420;2023-08-21T12:27:47;102450.25;;;29.51;38.96
72061;BME280;59925;52.136;5.420;2023-08-21T12:30:26;102436.88;;;29.34;39.07
72061;BME280;59925;52.136;5.420;2023-08-21T12:32:52;102441.53;;;30.08;38.87
72061;BME280;59925;52.136;5.420;2023-08-21T12:35:19;102433.34;;;30.82;38.04
72061;BME280;59925;52.136;5.420;2023-08-21T12:37:45;102429.94;;;30.92;38.40
72061;BME280;59925;52.136;5.420;2023-08-21T12:40:12;102440.25;;;30.68;37.17
72061;BME280;59925;52.136;5.420;2023-08-21T12:42:38;102431.59;;;30.04;38.87
72061;BME280;59925;52.136;5.420;2023-08-21T12:45:05;102439.34;;;30.18;38.58
72061;BME280;59925;52.136;5.420;2023-08-21T12:47:32;102431.88;;;30.65;38.55
72061;BME280;59925;52.136;5.420;2023-08-21T12:49:59;102419.66;;;30.93;37.02
72061;BME280;59925;52.136;5.420;2023-08-21T12:52:26;102432.16;;;30.36;38.62
72061;BME280;59925;52.136;5.420;2023-08-21T12:54:52;102432.97;;;29.74;40.19
72061;BME280;59925;52.136;5.420;2023-08-21T12:57:19;102433.41;;;29.57;38.71
72061;BME280;59925;52.136;5.420;2023-08-21T12:59:45;102435.28;;;29.92;38.77
72061;BME280;59925;52.136;5.420;2023-08-21T13:02:12;102432.97;;;29.55;38.38
72061;BME280;59925;52.136;5.420;2023-08-21T13:04:38;102423.59;;;29.24;38.90